Brownstown, Washington
Current Conditions -  °F | °C
As of 2:53 PM on Monday 22 Dec 2014 (Local Time) from KYKM Reporting Station
Clear Clear  
Wind Chill: 56°   Ceiling: Unl
Heat Index: 56°   Visibility: 10mi
Dew Point: 29°   Wind: 8mph
Humidity: 36%   Direction: 310°NW
Pressure: 30.29"   Gusts: NA
Location:  46.4°N, 120.61°W
Report Text: KYKM 222253Z AUTO 31007KT 10SM CLR 13/M02 A3029 RMK AO2 SLP261 T01331017
Loading
Personal Weather Stations






























Interactive Weather Map New forecast layout! Learn more

10-Day Weather Forecast

Advertisements
Track Severe Weather on mobile